sensor_id;sensor_type;location;lat;lon;timestamp;P1;durP1;ratioP1;P2;durP2;ratioP2
69542;SDS011;56762;49.494;11.768;2022-11-18T00:02:03;9.25;;;4.40;;
69542;SDS011;56762;49.494;11.768;2022-11-18T00:04:31;7.75;;;4.65;;
69542;SDS011;56762;49.494;11.768;2022-11-18T00:06:59;8.27;;;4.20;;
69542;SDS011;56762;49.494;11.768;2022-11-18T00:09:27;7.30;;;4.05;;
69542;SDS011;56762;49.494;11.768;2022-11-18T00:11:54;9.10;;;4.03;;
69542;SDS011;56762;49.494;11.768;2022-11-18T00:14:40;7.65;;;4.00;;
69542;SDS011;56762;49.494;11.768;2022-11-18T00:17:09;9.45;;;4.70;;
69542;SDS011;56762;49.494;11.768;2022-11-18T00:19:37;7.55;;;3.97;;
69542;SDS011;56762;49.494;11.768;2022-11-18T00:22:07;6.20;;;3.42;;
69542;SDS011;56762;49.494;11.768;2022-11-18T00:24:38;7.03;;;3.80;;
69542;SDS011;56762;49.494;11.768;2022-11-18T00:27:06;7.82;;;3.80;;
69542;SDS011;56762;49.494;11.768;2022-11-18T00:29:33;6.38;;;3.40;;
69542;SDS011;56762;49.494;11.768;2022-11-18T00:32:01;7.63;;;3.85;;
69542;SDS011;56762;49.494;11.768;2022-11-18T00:34:30;6.63;;;3.80;;
69542;SDS011;56762;49.494;11.768;2022-11-18T00:36:58;8.70;;;3.77;;
69542;SDS011;56762;49.494;11.768;2022-11-18T00:39:26;6.80;;;3.67;;
69542;SDS011;56762;49.494;11.768;2022-11-18T00:41:53;6.97;;;3.72;;
69542;SDS011;56762;49.494;11.768;2022-11-18T00:44:39;7.25;;;3.95;;
69542;SDS011;56762;49.494;11.768;2022-11-18T00:47:07;10.05;;;5.10;;
69542;SDS011;56762;49.494;11.768;2022-11-18T00:49:36;10.47;;;5.47;;
69542;SDS011;56762;49.494;11.768;2022-11-18T00:52:04;10.68;;;5.20;;
69542;SDS011;56762;49.494;11.768;2022-11-18T00:54:31;11.30;;;6.53;;
69542;SDS011;56762;49.494;11.768;2022-11-18T00:56:59;14.23;;;7.38;;
69542;SDS011;56762;49.494;11.768;2022-11-18T00:59:27;15.38;;;6.90;;
69542;SDS011;56762;49.494;11.768;2022-11-18T01:01:55;14.90;;;6.53;;
69542;SDS011;56762;49.494;11.768;2022-11-18T01:04:23;11.40;;;6.15;;
69542;SDS011;56762;49.494;11.768;2022-11-18T01:06:51;9.32;;;5.72;;
69542;SDS011;56762;49.494;11.768;2022-11-18T01:09:20;9.15;;;4.97;;
69542;SDS011;56762;49.494;11.768;2022-11-18T01:11:47;10.80;;;5.85;;
69542;SDS011;56762;49.494;11.768;2022-11-18T01:14:33;9.50;;;5.47;;
69542;SDS011;56762;49.494;11.768;2022-11-18T01:17:00;10.18;;;5.90;;
69542;SDS011;56762;49.494;11.768;2022-11-18T01:19:28;9.23;;;5.43;;
69542;SDS011;56762;49.494;11.768;2022-11-18T01:21:57;10.93;;;5.80;;
69542;SDS011;56762;49.494;11.768;2022-11-18T01:24:28;10.48;;;5.95;;
69542;SDS011;56762;49.494;11.768;2022-11-18T01:26:56;11.33;;;6.10;;
69542;SDS011;56762;49.494;11.768;2022-11-18T01:29:24;10.73;;;5.95;;
69542;SDS011;56762;49.494;11.768;2022-11-18T01:31:52;9.95;;;6.07;;
69542;SDS011;56762;49.494;11.768;2022-11-18T01:34:40;10.27;;;5.70;;
69542;SDS011;56762;49.494;11.768;2022-11-18T01:37:09;11.45;;;6.80;;
69542;SDS011;56762;49.494;11.768;2022-11-18T01:39:37;13.40;;;6.50;;
69542;SDS011;56762;49.494;11.768;2022-11-18T01:42:08;11.48;;;6.82;;
69542;SDS011;56762;49.494;11.768;2022-11-18T01:44:55;12.95;;;7.43;;
69542;SDS011;56762;49.494;11.768;2022-11-18T01:47:30;11.63;;;7.15;;
69542;SDS011;56762;49.494;11.768;2022-11-18T01:50:02;13.30;;;7.55;;
69542;SDS011;56762;49.494;11.768;2022-11-18T01:52:32;13.17;;;7.10;;
69542;SDS011;56762;49.494;11.768;2022-11-18T01:55:03;11.80;;;6.88;;
69542;SDS011;56762;49.494;11.768;2022-11-18T01:57:35;11.18;;;6.47;;
69542;SDS011;56762;49.494;11.768;2022-11-18T02:00:03;11.77;;;6.10;;
69542;SDS011;56762;49.494;11.768;2022-11-18T02:02:33;12.02;;;6.57;;
69542;SDS011;56762;49.494;11.768;2022-11-18T02:05:04;12.60;;;5.93;;
69542;SDS011;56762;49.494;11.768;2022-11-18T02:07:37;11.20;;;6.63;;
69542;SDS011;56762;49.494;11.768;2022-11-18T02:10:08;13.38;;;7.00;;
69542;SDS011;56762;49.494;11.768;2022-11-18T02:12:42;13.45;;;7.05;;
69542;SDS011;56762;49.494;11.768;2022-11-18T02:15:10;11.38;;;6.45;;
69542;SDS011;56762;49.494;11.768;2022-11-18T02:17:41;13.77;;;6.43;;
69542;SDS011;56762;49.494;11.768;2022-11-18T02:20:19;12.93;;;6.53;;
69542;SDS011;56762;49.494;11.768;2022-11-18T02:26:31;11.60;;;6.15;;
69542;SDS011;56762;49.494;11.768;2022-11-18T02:29:24;13.52;;;6.70;;
69542;SDS011;56762;49.494;11.768;2022-11-18T02:31:56;11.17;;;6.37;;
69542;SDS011;56762;49.494;11.768;2022-11-18T02:34:33;11.18;;;6.05;;
69542;SDS011;56762;49.494;11.768;2022-11-18T02:37:07;11.10;;;6.32;;
69542;SDS011;56762;49.494;11.768;2022-11-18T02:39:42;11.57;;;6.80;;
69542;SDS011;56762;49.494;11.768;2022-11-18T02:42:13;12.25;;;6.70;;
69542;SDS011;56762;49.494;11.768;2022-11-18T02:44:44;11.00;;;5.97;;
69542;SDS011;56762;49.494;11.768;2022-11-18T02:47:16;12.40;;;6.10;;
69542;SDS011;56762;49.494;11.768;2022-11-18T02:49:47;10.63;;;5.75;;
69542;SDS011;56762;49.494;11.768;2022-11-18T02:52:18;10.90;;;5.95;;
69542;SDS011;56762;49.494;11.768;2022-11-18T02:54:47;12.45;;;6.03;;
69542;SDS011;56762;49.494;11.768;2022-11-18T02:57:16;12.43;;;6.47;;
69542;SDS011;56762;49.494;11.768;2022-11-18T02:59:48;12.18;;;6.72;;
69542;SDS011;56762;49.494;11.768;2022-11-18T03:02:16;11.38;;;5.85;;
69542;SDS011;56762;49.494;11.768;2022-11-18T03:04:46;12.02;;;6.47;;
69542;SDS011;56762;49.494;11.768;2022-11-18T03:07:16;12.98;;;6.57;;
69542;SDS011;56762;49.494;11.768;2022-11-18T03:09:48;13.23;;;6.00;;
69542;SDS011;56762;49.494;11.768;2022-11-18T03:12:21;12.05;;;6.75;;
69542;SDS011;56762;49.494;11.768;2022-11-18T03:15:00;14.65;;;6.63;;
69542;SDS011;56762;49.494;11.768;2022-11-18T03:17:34;11.93;;;6.53;;
69542;SDS011;56762;49.494;11.768;2022-11-18T03:20:13;13.18;;;6.63;;
69542;SDS011;56762;49.494;11.768;2022-11-18T03:22:45;12.67;;;7.00;;
69542;SDS011;56762;49.494;11.768;2022-11-18T03:25:18;13.32;;;6.38;;
69542;SDS011;56762;49.494;11.768;2022-11-18T03:27:50;11.82;;;6.45;;
69542;SDS011;56762;49.494;11.768;2022-11-18T03:30:22;12.50;;;6.68;;
69542;SDS011;56762;49.494;11.768;2022-11-18T03:32:51;12.25;;;6.60;;
69542;SDS011;56762;49.494;11.768;2022-11-18T03:35:24;12.27;;;5.93;;
69542;SDS011;56762;49.494;11.768;2022-11-18T03:37:55;14.20;;;6.68;;
69542;SDS011;56762;49.494;11.768;2022-11-18T03:40:29;11.52;;;6.30;;
69542;SDS011;56762;49.494;11.768;2022-11-18T03:42:59;11.95;;;5.95;;
69542;SDS011;56762;49.494;11.768;2022-11-18T03:45:34;12.32;;;5.97;;
69542;SDS011;56762;49.494;11.768;2022-11-18T03:48:07;11.20;;;5.70;;
69542;SDS011;56762;49.494;11.768;2022-11-18T03:50:40;10.20;;;5.22;;
69542;SDS011;56762;49.494;11.768;2022-11-18T03:53:11;12.18;;;6.13;;
69542;SDS011;56762;49.494;11.768;2022-11-18T03:55:42;13.68;;;6.25;;
69542;SDS011;56762;49.494;11.768;2022-11-18T03:58:16;12.80;;;5.82;;
69542;SDS011;56762;49.494;11.768;2022-11-18T04:00:49;11.17;;;5.97;;
69542;SDS011;56762;49.494;11.768;2022-11-18T04:03:21;14.73;;;5.47;;
69542;SDS011;56762;49.494;11.768;2022-11-18T04:05:51;11.25;;;5.82;;
69542;SDS011;56762;49.494;11.768;2022-11-18T04:08:27;13.68;;;5.97;;
69542;SDS011;56762;49.494;11.768;2022-11-18T04:11:01;11.88;;;6.30;;
69542;SDS011;56762;49.494;11.768;2022-11-18T04:13:33;11.40;;;5.40;;
69542;SDS011;56762;49.494;11.768;2022-11-18T04:16:04;11.10;;;5.82;;
69542;SDS011;56762;49.494;11.768;2022-11-18T04:18:35;11.32;;;5.75;;
69542;SDS011;56762;49.494;11.768;2022-11-18T04:21:02;11.68;;;5.80;;
69542;SDS011;56762;49.494;11.768;2022-11-18T04:23:30;10.80;;;5.45;;
69542;SDS011;56762;49.494;11.768;2022-11-18T04:25:58;10.37;;;4.97;;
69542;SDS011;56762;49.494;11.768;2022-11-18T04:28:26;11.32;;;5.70;;
69542;SDS011;56762;49.494;11.768;2022-11-18T04:30:53;8.85;;;5.03;;
69542;SDS011;56762;49.494;11.768;2022-11-18T04:33:22;10.15;;;4.93;;
69542;SDS011;56762;49.494;11.768;2022-11-18T04:35:50;11.27;;;5.45;;
69542;SDS011;56762;49.494;11.768;2022-11-18T04:38:18;11.17;;;5.47;;
69542;SDS011;56762;49.494;11.768;2022-11-18T04:40:47;9.40;;;4.88;;
69542;SDS011;56762;49.494;11.768;2022-11-18T04:43:15;9.80;;;4.70;;
69542;SDS011;56762;49.494;11.768;2022-11-18T04:45:43;9.55;;;4.70;;
69542;SDS011;56762;49.494;11.768;2022-11-18T04:48:10;10.30;;;4.97;;
69542;SDS011;56762;49.494;11.768;2022-11-18T04:50:39;11.37;;;5.43;;
69542;SDS011;56762;49.494;11.768;2022-11-18T04:53:07;12.57;;;5.20;;
69542;SDS011;56762;49.494;11.768;2022-11-18T04:55:35;10.38;;;5.25;;
69542;SDS011;56762;49.494;11.768;2022-11-18T04:58:03;11.10;;;5.55;;
69542;SDS011;56762;49.494;11.768;2022-11-18T05:00:30;12.85;;;6.07;;
69542;SDS011;56762;49.494;11.768;2022-11-18T05:02:58;12.57;;;6.10;;
69542;SDS011;56762;49.494;11.768;2022-11-18T05:05:26;13.65;;;6.28;;
69542;SDS011;56762;49.494;11.768;2022-11-18T05:07:55;12.45;;;6.28;;
69542;SDS011;56762;49.494;11.768;2022-11-18T05:10:22;11.82;;;5.90;;
69542;SDS011;56762;49.494;11.768;2022-11-18T05:12:50;10.82;;;5.90;;
69542;SDS011;56762;49.494;11.768;2022-11-18T05:15:18;11.80;;;5.83;;
69542;SDS011;56762;49.494;11.768;2022-11-18T05:17:47;12.55;;;6.13;;
69542;SDS011;56762;49.494;11.768;2022-11-18T05:20:15;10.32;;;6.07;;
69542;SDS011;56762;49.494;11.768;2022-11-18T05:22:43;10.43;;;5.90;;
69542;SDS011;56762;49.494;11.768;2022-11-18T05:25:12;12.13;;;6.50;;
69542;SDS011;56762;49.494;11.768;2022-11-18T05:27:40;11.23;;;6.20;;
69542;SDS011;56762;49.494;11.768;2022-11-18T05:30:08;12.02;;;6.07;;
69542;SDS011;56762;49.494;11.768;2022-11-18T05:32:36;11.60;;;6.72;;
69542;SDS011;56762;49.494;11.768;2022-11-18T05:35:04;12.30;;;6.10;;
69542;SDS011;56762;49.494;11.768;2022-11-18T05:37:32;11.90;;;6.07;;
69542;SDS011;56762;49.494;11.768;2022-11-18T05:40:00;15.97;;;6.57;;
69542;SDS011;56762;49.494;11.768;2022-11-18T05:42:29;11.48;;;5.82;;
69542;SDS011;56762;49.494;11.768;2022-11-18T05:45:14;14.00;;;6.47;;
69542;SDS011;56762;49.494;11.768;2022-11-18T05:47:44;13.23;;;6.80;;
69542;SDS011;56762;49.494;11.768;2022-11-18T05:50:30;13.13;;;6.43;;
69542;SDS011;56762;49.494;11.768;2022-11-18T05:52:58;13.63;;;7.27;;
69542;SDS011;56762;49.494;11.768;2022-11-18T05:55:27;13.50;;;6.80;;
69542;SDS011;56762;49.494;11.768;2022-11-18T05:58:01;12.40;;;6.35;;
69542;SDS011;56762;49.494;11.768;2022-11-18T06:00:29;14.32;;;8.05;;
69542;SDS011;56762;49.494;11.768;2022-11-18T06:02:57;14.98;;;7.88;;
69542;SDS011;56762;49.494;11.768;2022-11-18T06:05:27;12.73;;;7.43;;
69542;SDS011;56762;49.494;11.768;2022-11-18T06:07:54;12.95;;;7.18;;
69542;SDS011;56762;49.494;11.768;2022-11-18T06:10:24;12.25;;;6.72;;
69542;SDS011;56762;49.494;11.768;2022-11-18T06:12:55;13.52;;;7.30;;
69542;SDS011;56762;49.494;11.768;2022-11-18T06:15:29;12.43;;;6.78;;
69542;SDS011;56762;49.494;11.768;2022-11-18T06:18:01;13.43;;;6.97;;
69542;SDS011;56762;49.494;11.768;2022-11-18T06:20:34;13.43;;;6.90;;
69542;SDS011;56762;49.494;11.768;2022-11-18T06:23:04;12.45;;;6.85;;
69542;SDS011;56762;49.494;11.768;2022-11-18T06:25:31;12.40;;;6.82;;
69542;SDS011;56762;49.494;11.768;2022-11-18T06:28:00;14.07;;;6.95;;
69542;SDS011;56762;49.494;11.768;2022-11-18T06:30:29;10.83;;;6.13;;
69542;SDS011;56762;49.494;11.768;2022-11-18T06:32:57;12.98;;;6.45;;
69542;SDS011;56762;49.494;11.768;2022-11-18T06:35:25;15.05;;;7.55;;
69542;SDS011;56762;49.494;11.768;2022-11-18T06:37:53;13.90;;;7.25;;
69542;SDS011;56762;49.494;11.768;2022-11-18T06:40:21;13.50;;;6.57;;
69542;SDS011;56762;49.494;11.768;2022-11-18T06:42:48;14.07;;;6.23;;
69542;SDS011;56762;49.494;11.768;2022-11-18T06:45:50;13.40;;;5.95;;
69542;SDS011;56762;49.494;11.768;2022-11-18T06:48:34;12.50;;;6.25;;
69542;SDS011;56762;49.494;11.768;2022-11-18T06:51:03;16.10;;;7.13;;
69542;SDS011;56762;49.494;11.768;2022-11-18T06:53:31;14.38;;;6.65;;
69542;SDS011;56762;49.494;11.768;2022-11-18T06:56:01;14.77;;;7.73;;
69542;SDS011;56762;49.494;11.768;2022-11-18T06:58:29;13.65;;;7.20;;
69542;SDS011;56762;49.494;11.768;2022-11-18T07:00:59;12.68;;;6.88;;
69542;SDS011;56762;49.494;11.768;2022-11-18T07:03:35;14.13;;;7.20;;
69542;SDS011;56762;49.494;11.768;2022-11-18T07:06:03;15.15;;;7.10;;
69542;SDS011;56762;49.494;11.768;2022-11-18T07:08:31;12.37;;;6.83;;
69542;SDS011;56762;49.494;11.768;2022-11-18T07:11:00;13.55;;;7.20;;
69542;SDS011;56762;49.494;11.768;2022-11-18T07:13:28;12.32;;;7.30;;
69542;SDS011;56762;49.494;11.768;2022-11-18T07:16:01;13.57;;;6.88;;
69542;SDS011;56762;49.494;11.768;2022-11-18T07:18:31;12.43;;;6.88;;
69542;SDS011;56762;49.494;11.768;2022-11-18T07:21:02;10.77;;;5.93;;
69542;SDS011;56762;49.494;11.768;2022-11-18T07:23:30;14.00;;;7.55;;
69542;SDS011;56762;49.494;11.768;2022-11-18T07:25:59;13.13;;;6.90;;
69542;SDS011;56762;49.494;11.768;2022-11-18T07:28:27;11.35;;;5.88;;
69542;SDS011;56762;49.494;11.768;2022-11-18T07:30:59;11.82;;;5.93;;
69542;SDS011;56762;49.494;11.768;2022-11-18T07:33:29;9.50;;;5.30;;
69542;SDS011;56762;49.494;11.768;2022-11-18T07:36:00;12.05;;;5.50;;
69542;SDS011;56762;49.494;11.768;2022-11-18T07:38:28;11.10;;;5.55;;
69542;SDS011;56762;49.494;11.768;2022-11-18T07:41:01;10.40;;;5.95;;
69542;SDS011;56762;49.494;11.768;2022-11-18T07:43:30;10.15;;;5.60;;
69542;SDS011;56762;49.494;11.768;2022-11-18T07:45:58;8.93;;;5.13;;
69542;SDS011;56762;49.494;11.768;2022-11-18T07:48:36;9.68;;;5.05;;
69542;SDS011;56762;49.494;11.768;2022-11-18T07:51:04;10.30;;;4.93;;
69542;SDS011;56762;49.494;11.768;2022-11-18T07:53:32;10.55;;;5.63;;
69542;SDS011;56762;49.494;11.768;2022-11-18T07:56:01;12.02;;;5.28;;
69542;SDS011;56762;49.494;11.768;2022-11-18T07:58:29;10.63;;;5.37;;
69542;SDS011;56762;49.494;11.768;2022-11-18T08:00:57;12.80;;;5.65;;
69542;SDS011;56762;49.494;11.768;2022-11-18T08:03:25;12.70;;;5.85;;
69542;SDS011;56762;49.494;11.768;2022-11-18T08:05:58;11.43;;;5.45;;
69542;SDS011;56762;49.494;11.768;2022-11-18T08:08:26;12.55;;;5.40;;
69542;SDS011;56762;49.494;11.768;2022-11-18T08:10:54;9.47;;;4.30;;
69542;SDS011;56762;49.494;11.768;2022-11-18T08:13:23;7.80;;;4.25;;
69542;SDS011;56762;49.494;11.768;2022-11-18T08:15:51;7.00;;;4.13;;
69542;SDS011;56762;49.494;11.768;2022-11-18T08:18:19;5.47;;;3.28;;
69542;SDS011;56762;49.494;11.768;2022-11-18T08:20:47;5.10;;;2.20;;
69542;SDS011;56762;49.494;11.768;2022-11-18T08:23:17;5.23;;;2.43;;
69542;SDS011;56762;49.494;11.768;2022-11-18T08:25:45;4.97;;;2.50;;
69542;SDS011;56762;49.494;11.768;2022-11-18T08:28:13;4.47;;;2.60;;
69542;SDS011;56762;49.494;11.768;2022-11-18T08:30:41;4.40;;;2.70;;
69542;SDS011;56762;49.494;11.768;2022-11-18T08:33:09;7.53;;;4.07;;
69542;SDS011;56762;49.494;11.768;2022-11-18T08:35:37;6.67;;;3.10;;
69542;SDS011;56762;49.494;11.768;2022-11-18T08:38:05;4.43;;;2.40;;
69542;SDS011;56762;49.494;11.768;2022-11-18T08:40:34;3.85;;;2.20;;
69542;SDS011;56762;49.494;11.768;2022-11-18T08:43:02;6.57;;;2.90;;
69542;SDS011;56762;49.494;11.768;2022-11-18T08:45:29;3.58;;;2.28;;
69542;SDS011;56762;49.494;11.768;2022-11-18T08:47:57;3.63;;;1.70;;
69542;SDS011;56762;49.494;11.768;2022-11-18T08:50:25;3.63;;;1.80;;
69542;SDS011;56762;49.494;11.768;2022-11-18T08:52:53;3.63;;;2.10;;
69542;SDS011;56762;49.494;11.768;2022-11-18T08:55:21;4.95;;;2.85;;
69542;SDS011;56762;49.494;11.768;2022-11-18T08:57:50;5.07;;;2.80;;
69542;SDS011;56762;49.494;11.768;2022-11-18T09:00:18;15.10;;;6.87;;
69542;SDS011;56762;49.494;11.768;2022-11-18T09:02:46;10.18;;;3.03;;
69542;SDS011;56762;49.494;11.768;2022-11-18T09:05:14;15.50;;;5.65;;
69542;SDS011;56762;49.494;11.768;2022-11-18T09:07:42;8.77;;;3.47;;
69542;SDS011;56762;49.494;11.768;2022-11-18T09:10:27;5.47;;;2.33;;
69542;SDS011;56762;49.494;11.768;2022-11-18T09:12:57;7.23;;;2.70;;
69542;SDS011;56762;49.494;11.768;2022-11-18T09:15:43;6.50;;;3.42;;
69542;SDS011;56762;49.494;11.768;2022-11-18T09:18:10;6.07;;;2.60;;
69542;SDS011;56762;49.494;11.768;2022-11-18T09:20:38;6.88;;;3.17;;
69542;SDS011;56762;49.494;11.768;2022-11-18T09:23:06;7.28;;;3.15;;
69542;SDS011;56762;49.494;11.768;2022-11-18T09:25:33;9.43;;;4.07;;
69542;SDS011;56762;49.494;11.768;2022-11-18T09:28:02;16.77;;;7.80;;
69542;SDS011;56762;49.494;11.768;2022-11-18T09:30:30;5.55;;;2.50;;
69542;SDS011;56762;49.494;11.768;2022-11-18T09:33:16;4.32;;;1.67;;
69542;SDS011;56762;49.494;11.768;2022-11-18T09:35:46;2.85;;;0.90;;
69542;SDS011;56762;49.494;11.768;2022-11-18T09:38:14;4.50;;;1.40;;
69542;SDS011;56762;49.494;11.768;2022-11-18T09:41:03;3.17;;;0.90;;
69542;SDS011;56762;49.494;11.768;2022-11-18T09:43:37;3.17;;;1.38;;
69542;SDS011;56762;49.494;11.768;2022-11-18T09:46:20;4.78;;;1.65;;
69542;SDS011;56762;49.494;11.768;2022-11-18T09:49:10;6.43;;;1.83;;
69542;SDS011;56762;49.494;11.768;2022-11-18T09:51:43;5.47;;;1.53;;
69542;SDS011;56762;49.494;11.768;2022-11-18T09:54:15;5.43;;;1.60;;
69542;SDS011;56762;49.494;11.768;2022-11-18T09:56:46;3.20;;;1.00;;
69542;SDS011;56762;49.494;11.768;2022-11-18T09:59:16;3.78;;;1.40;;
69542;SDS011;56762;49.494;11.768;2022-11-18T10:01:46;3.40;;;1.30;;
69542;SDS011;56762;49.494;11.768;2022-11-18T10:04:16;2.93;;;0.97;;
69542;SDS011;56762;49.494;11.768;2022-11-18T10:06:46;2.67;;;0.65;;
69542;SDS011;56762;49.494;11.768;2022-11-18T10:09:20;3.80;;;1.45;;
69542;SDS011;56762;49.494;11.768;2022-11-18T10:12:00;3.90;;;1.60;;
69542;SDS011;56762;49.494;11.768;2022-11-18T10:14:42;4.85;;;2.05;;
69542;SDS011;56762;49.494;11.768;2022-11-18T10:17:32;5.50;;;2.00;;
69542;SDS011;56762;49.494;11.768;2022-11-18T10:20:20;4.05;;;1.63;;
69542;SDS011;56762;49.494;11.768;2022-11-18T10:22:55;3.22;;;1.50;;
69542;SDS011;56762;49.494;11.768;2022-11-18T10:25:26;3.03;;;0.82;;
69542;SDS011;56762;49.494;11.768;2022-11-18T10:27:54;2.50;;;1.10;;
69542;SDS011;56762;49.494;11.768;2022-11-18T10:30:24;2.33;;;0.70;;
69542;SDS011;56762;49.494;11.768;2022-11-18T10:32:53;1.63;;;0.30;;
69542;SDS011;56762;49.494;11.768;2022-11-18T10:35:24;1.52;;;0.35;;
69542;SDS011;56762;49.494;11.768;2022-11-18T10:37:58;1.90;;;0.43;;
69542;SDS011;56762;49.494;11.768;2022-11-18T10:40:35;2.15;;;0.60;;
69542;SDS011;56762;49.494;11.768;2022-11-18T10:43:08;1.27;;;0.40;;
69542;SDS011;56762;49.494;11.768;2022-11-18T10:45:38;1.90;;;0.40;;
69542;SDS011;56762;49.494;11.768;2022-11-18T10:48:06;1.00;;;0.30;;
69542;SDS011;56762;49.494;11.768;2022-11-18T10:50:37;1.30;;;0.30;;
69542;SDS011;56762;49.494;11.768;2022-11-18T10:55:56;4.13;;;1.17;;
69542;SDS011;56762;49.494;11.768;2022-11-18T10:58:24;5.75;;;2.55;;
69542;SDS011;56762;49.494;11.768;2022-11-18T11:00:54;1.17;;;0.40;;
69542;SDS011;56762;49.494;11.768;2022-11-18T11:03:32;1.02;;;0.20;;
69542;SDS011;56762;49.494;11.768;2022-11-18T11:06:21;0.50;;;0.10;;
69542;SDS011;56762;49.494;11.768;2022-11-18T11:08:56;1.50;;;0.10;;
69542;SDS011;56762;49.494;11.768;2022-11-18T11:11:26;0.70;;;0.20;;
69542;SDS011;56762;49.494;11.768;2022-11-18T11:14:05;1.10;;;0.10;;
69542;SDS011;56762;49.494;11.768;2022-11-18T11:16:52;1.65;;;0.40;;
69542;SDS011;56762;49.494;11.768;2022-11-18T11:19:27;1.10;;;0.20;;
69542;SDS011;56762;49.494;11.768;2022-11-18T11:22:01;1.00;;;0.33;;
69542;SDS011;56762;49.494;11.768;2022-11-18T11:24:29;1.35;;;0.57;;
69542;SDS011;56762;49.494;11.768;2022-11-18T11:27:00;3.60;;;1.20;;
69542;SDS011;56762;49.494;11.768;2022-11-18T11:30:08;8.35;;;3.17;;
69542;SDS011;56762;49.494;11.768;2022-11-18T11:32:51;5.60;;;1.80;;
69542;SDS011;56762;49.494;11.768;2022-11-18T11:35:53;7.93;;;2.20;;
69542;SDS011;56762;49.494;11.768;2022-11-18T11:38:33;11.30;;;4.63;;
69542;SDS011;56762;49.494;11.768;2022-11-18T11:41:11;8.35;;;4.00;;
69542;SDS011;56762;49.494;11.768;2022-11-18T11:43:49;4.10;;;2.40;;
69542;SDS011;56762;49.494;11.768;2022-11-18T11:46:27;3.38;;;1.50;;
69542;SDS011;56762;49.494;11.768;2022-11-18T11:49:09;4.83;;;1.87;;
69542;SDS011;56762;49.494;11.768;2022-11-18T11:51:46;4.45;;;1.75;;
69542;SDS011;56762;49.494;11.768;2022-11-18T11:54:29;3.97;;;1.45;;
69542;SDS011;56762;49.494;11.768;2022-11-18T11:57:09;3.05;;;1.38;;
69542;SDS011;56762;49.494;11.768;2022-11-18T11:59:44;3.75;;;2.05;;
69542;SDS011;56762;49.494;11.768;2022-11-18T12:02:34;6.27;;;2.10;;
69542;SDS011;56762;49.494;11.768;2022-11-18T12:05:17;3.88;;;1.42;;
69542;SDS011;56762;49.494;11.768;2022-11-18T12:07:50;5.18;;;2.42;;
69542;SDS011;56762;49.494;11.768;2022-11-18T12:10:28;5.80;;;2.50;;
69542;SDS011;56762;49.494;11.768;2022-11-18T12:13:05;5.18;;;1.90;;
69542;SDS011;56762;49.494;11.768;2022-11-18T12:15:43;4.17;;;1.80;;
69542;SDS011;56762;49.494;11.768;2022-11-18T12:18:18;4.32;;;1.73;;
69542;SDS011;56762;49.494;11.768;2022-11-18T12:20:50;5.10;;;2.05;;
69542;SDS011;56762;49.494;11.768;2022-11-18T12:23:20;3.20;;;1.20;;
69542;SDS011;56762;49.494;11.768;2022-11-18T12:28:36;3.97;;;1.53;;
69542;SDS011;56762;49.494;11.768;2022-11-18T12:31:25;4.65;;;1.73;;
69542;SDS011;56762;49.494;11.768;2022-11-18T12:33:59;5.55;;;2.30;;
69542;SDS011;56762;49.494;11.768;2022-11-18T12:36:33;10.15;;;4.78;;
69542;SDS011;56762;49.494;11.768;2022-11-18T12:42:07;4.07;;;1.70;;
69542;SDS011;56762;49.494;11.768;2022-11-18T12:48:31;4.40;;;1.40;;
69542;SDS011;56762;49.494;11.768;2022-11-18T12:51:01;5.20;;;1.98;;
69542;SDS011;56762;49.494;11.768;2022-11-18T12:53:58;4.40;;;1.42;;
69542;SDS011;56762;49.494;11.768;2022-11-18T12:56:41;5.20;;;1.70;;
69542;SDS011;56762;49.494;11.768;2022-11-18T12:59:14;3.92;;;1.58;;
69542;SDS011;56762;49.494;11.768;2022-11-18T13:01:42;4.55;;;1.90;;
69542;SDS011;56762;49.494;11.768;2022-11-18T13:04:11;3.85;;;1.60;;
69542;SDS011;56762;49.494;11.768;2022-11-18T13:06:41;4.53;;;1.98;;
69542;SDS011;56762;49.494;11.768;2022-11-18T13:09:13;3.90;;;2.30;;
69542;SDS011;56762;49.494;11.768;2022-11-18T13:11:45;2.80;;;1.52;;
69542;SDS011;56762;49.494;11.768;2022-11-18T13:14:17;3.15;;;1.23;;
69542;SDS011;56762;49.494;11.768;2022-11-18T13:20:17;5.53;;;1.75;;
69542;SDS011;56762;49.494;11.768;2022-11-18T13:22:49;2.57;;;0.87;;
69542;SDS011;56762;49.494;11.768;2022-11-18T13:25:36;3.75;;;1.40;;
69542;SDS011;56762;49.494;11.768;2022-11-18T13:28:08;2.08;;;1.25;;
69542;SDS011;56762;49.494;11.768;2022-11-18T13:30:48;4.10;;;1.83;;
69542;SDS011;56762;49.494;11.768;2022-11-18T13:33:20;4.20;;;1.83;;
69542;SDS011;56762;49.494;11.768;2022-11-18T13:35:49;5.60;;;3.90;;
69542;SDS011;56762;49.494;11.768;2022-11-18T13:38:18;6.20;;;3.50;;
69542;SDS011;56762;49.494;11.768;2022-11-18T13:40:55;5.28;;;3.50;;
69542;SDS011;56762;49.494;11.768;2022-11-18T13:43:37;6.53;;;3.70;;
69542;SDS011;56762;49.494;11.768;2022-11-18T13:46:06;3.65;;;2.55;;
69542;SDS011;56762;49.494;11.768;2022-11-18T13:48:37;5.67;;;2.97;;
69542;SDS011;56762;49.494;11.768;2022-11-18T13:51:11;3.70;;;2.28;;
69542;SDS011;56762;49.494;11.768;2022-11-18T13:53:39;4.68;;;2.45;;
69542;SDS011;56762;49.494;11.768;2022-11-18T13:56:15;5.80;;;3.42;;
69542;SDS011;56762;49.494;11.768;2022-11-18T13:58:50;8.05;;;4.32;;
69542;SDS011;56762;49.494;11.768;2022-11-18T14:01:42;4.27;;;1.87;;
69542;SDS011;56762;49.494;11.768;2022-11-18T14:04:14;3.15;;;1.27;;
69542;SDS011;56762;49.494;11.768;2022-11-18T14:06:45;4.43;;;1.52;;
69542;SDS011;56762;49.494;11.768;2022-11-18T14:09:18;3.90;;;1.80;;
69542;SDS011;56762;49.494;11.768;2022-11-18T14:11:58;5.72;;;2.15;;
69542;SDS011;56762;49.494;11.768;2022-11-18T14:14:29;5.17;;;2.23;;
69542;SDS011;56762;49.494;11.768;2022-11-18T14:17:02;6.18;;;3.10;;
69542;SDS011;56762;49.494;11.768;2022-11-18T14:19:32;4.60;;;2.75;;
69542;SDS011;56762;49.494;11.768;2022-11-18T14:22:03;4.85;;;2.55;;
69542;SDS011;56762;49.494;11.768;2022-11-18T14:24:38;9.50;;;5.45;;
69542;SDS011;56762;49.494;11.768;2022-11-18T14:30:25;7.32;;;3.33;;
69542;SDS011;56762;49.494;11.768;2022-11-18T14:33:08;4.47;;;2.45;;
69542;SDS011;56762;49.494;11.768;2022-11-18T14:35:40;4.70;;;2.30;;
69542;SDS011;56762;49.494;11.768;2022-11-18T14:38:13;5.13;;;2.47;;
69542;SDS011;56762;49.494;11.768;2022-11-18T14:41:03;6.07;;;2.00;;
69542;SDS011;56762;49.494;11.768;2022-11-18T14:43:32;4.25;;;2.08;;
69542;SDS011;56762;49.494;11.768;2022-11-18T14:46:02;6.50;;;2.50;;
69542;SDS011;56762;49.494;11.768;2022-11-18T14:48:31;3.85;;;1.95;;
69542;SDS011;56762;49.494;11.768;2022-11-18T14:51:00;4.47;;;2.05;;
69542;SDS011;56762;49.494;11.768;2022-11-18T14:53:28;5.03;;;2.10;;
69542;SDS011;56762;49.494;11.768;2022-11-18T14:55:57;5.30;;;2.47;;
69542;SDS011;56762;49.494;11.768;2022-11-18T14:58:26;4.53;;;2.10;;
69542;SDS011;56762;49.494;11.768;2022-11-18T15:00:53;5.63;;;2.33;;
69542;SDS011;56762;49.494;11.768;2022-11-18T15:03:23;6.75;;;3.30;;
69542;SDS011;56762;49.494;11.768;2022-11-18T15:05:50;5.33;;;2.70;;
69542;SDS011;56762;49.494;11.768;2022-11-18T15:08:18;7.15;;;3.17;;
69542;SDS011;56762;49.494;11.768;2022-11-18T15:10:46;5.82;;;2.80;;
69542;SDS011;56762;49.494;11.768;2022-11-18T15:13:14;13.05;;;6.80;;
69542;SDS011;56762;49.494;11.768;2022-11-18T15:15:41;10.02;;;4.20;;
69542;SDS011;56762;49.494;11.768;2022-11-18T15:18:09;6.20;;;3.37;;
69542;SDS011;56762;49.494;11.768;2022-11-18T15:20:38;4.30;;;2.70;;